Clipper Saga — LAFY6 — position and weather

sailwx.info

Track history (hours):
 
Tides and Currents Weather Stations Pressure Air Temp Water Temp Dewpoint Dewpoint Depression Visibility Wind Speed Wind Dir Waves Ship Positions

Clipper Saga

Last reported at 2017-Mar-27 13:31 UTC. Time now 2017-Mar-27 14:21 UTC.
Position N 53°11' E 005°26'.

Length 89 m; draft 5.9 m.

Type: Ship (hazmat cat C). MMSI: 246657008.

Date/timePositionNaut miles runAvg speedWind from/ knotsBaromVisibWave heightAir tempDewpointWater temp
2017-Mar-27 13:31N 53°11' E 005°26'0 0.0
2017-Mar-27 12:28N 53°11' E 005°26'0 0.0
2017-Mar-27 11:33N 53°11' E 005°26'0 0.0
2017-Mar-27 10:33N 53°11' E 005°26'0 0.0
2017-Mar-27 09:05N 53°11' E 005°26'0 0.0
2017-Mar-27 08:27N 53°11' E 005°26'0 0.0
2017-Mar-27 07:31N 53°11' E 005°26'0 0.0
2017-Mar-27 06:09N 53°11' E 005°26'0 0.0
2017-Mar-27 05:33N 53°11' E 005°26'0 0.0
2017-Mar-27 04:32N 53°11' E 005°26'0 0.0
2017-Mar-27 03:33N 53°11' E 005°26'0 0.0
2017-Mar-27 02:32N 53°11' E 005°26'0 0.0
2017-Mar-27 01:33N 53°11' E 005°26'0 0.0
2017-Mar-27 00:33N 53°11' E 005°26'0 0.0
2017-Mar-26 23:32N 53°11' E 005°26'1 1.4
2017-Mar-26 22:33N 53°11' E 005°24'8 7.9
2017-Mar-26 21:33N 53°14' E 005°12'7 7.1
2017-Mar-26 20:33N 53°19' E 005°03'9 9.4
2017-Mar-26 19:33N 53°17' E 004°47'1110.7
2017-Mar-26 18:33N 53°11' E 004°33'1211.6
2017-Mar-26 17:33N 53°01' E 004°23'1111.5
2017-Mar-26 16:33N 52°51' E 004°14'1111.0
2017-Mar-26 15:33N 52°42' E 004°03'1111.1
2017-Mar-26 14:33N 52°34' E 003°50'1110.5
2017-Mar-26 13:30N 52°30' E 003°33'2211.1
2017-Mar-26 11:33N 52°30' E 002°58'18 8.6
2017-Mar-26 09:30N 52°30' E 002°29'8 7.2
2017-Mar-26 08:25N 52°29' E 002°16'19 9.4
2017-Mar-26 06:22N 52°10' E 002°16'46 9.2
2017-Mar-26 01:22N 51°42' E 003°16'911.2
2017-Mar-26 00:33N 51°35' E 003°24'1211.2
2017-Mar-25 23:32N 51°26' E 003°36'8 8.2
2017-Mar-25 22:33N 51°21' E 003°47'5 5.1
2017-Mar-25 21:33N 51°17' E 003°50'8 8.4
2017-Mar-25 20:33N 51°09' E 003°47'0 0.1
2017-Mar-25 19:30N 51°09' E 003°47'0 0.0
2017-Mar-25 18:10N 51°09' E 003°47'0 0.0
2017-Mar-25 17:29N 51°09' E 003°47'0 0.0
2017-Mar-25 16:31N 51°09' E 003°47'0 0.0
2017-Mar-25 15:31N 51°09' E 003°47'0 0.0
2017-Mar-25 14:28N 51°09' E 003°47'0 0.0
2017-Mar-25 13:31N 51°09' E 003°47'0 0.0
2017-Mar-25 12:28N 51°09' E 003°47'0 0.0
2017-Mar-25 11:25N 51°09' E 003°47'0 0.0
2017-Mar-25 10:28N 51°09' E 003°47'0 0.0
2017-Mar-25 09:31N 51°09' E 003°47'0 0.0
2017-Mar-25 08:31N 51°09' E 003°47'0 0.0
2017-Mar-25 07:28N 51°09' E 003°47'0 0.0
2017-Mar-25 06:28N 51°09' E 003°47'0 0.0
2017-Mar-25 05:28N 51°09' E 003°47'0 0.0
2017-Mar-25 04:31N 51°09' E 003°47'0 0.0
2017-Mar-25 03:31N 51°09' E 003°47'3 3.3
2017-Mar-25 02:33N 51°12' E 003°48'8 7.7
2017-Mar-25 01:33N 51°20' E 003°49'4 4.4
2017-Mar-25 00:33N 51°22' E 003°44'8 7.8
2017-Mar-24 23:33N 51°27' E 003°33'1110.6
2017-Mar-24 22:33N 51°35' E 003°23'1010.1
2017-Mar-24 21:34N 51°44' E 003°16'4 2.5
2017-Mar-24 20:09N 51°46' E 003°20'0 0.0
2017-Mar-24 19:24N 51°46' E 003°20'0 0.0
2017-Mar-24 18:09N 51°46' E 003°20'0 0.0
2017-Mar-24 16:33N 51°46' E 003°20'0 0.0
2017-Mar-24 15:33N 51°46' E 003°20'0 0.0
2017-Mar-24 14:27N 51°46' E 003°20'0 0.0
2017-Mar-24 13:33N 51°46' E 003°20'0 0.0
2017-Mar-24 10:18N 51°46' E 003°20'0 0.0
2017-Mar-24 09:33N 51°46' E 003°20'0 0.0
2017-Mar-24 08:30N 51°46' E 003°20'0 0.0
2017-Mar-24 07:30N 51°46' E 003°20'0 0.0
2017-Mar-24 06:09N 51°46' E 003°20'0 0.0
2017-Mar-24 05:27N 51°46' E 003°20'0 0.0
2017-Mar-24 04:24N 51°46' E 003°20'0 0.0
2017-Mar-24 03:30N 51°46' E 003°20'0 0.0
2017-Mar-24 00:30N 51°47' E 003°20'0 0.0
2017-Mar-23 22:33N 51°46' E 003°20'0 0.0
2017-Mar-23 21:33N 51°46' E 003°20'0 0.0
2017-Mar-23 20:33N 51°46' E 003°20'0 0.0
2017-Mar-23 19:30N 51°46' E 003°20'0 0.0
2017-Mar-23 18:30N 51°46' E 003°20'0 0.0
2017-Mar-23 17:21N 51°46' E 003°20'0 0.0
2017-Mar-23 16:30N 51°46' E 003°20'0 0.1
2017-Mar-23 15:33N 51°47' E 003°20'0 0.0
2017-Mar-23 14:33N 51°47' E 003°20'0 0.0
2017-Mar-23 13:15N 51°47' E 003°20'0 0.1
2017-Mar-23 12:30N 51°47' E 003°20'0 0.0
2017-Mar-23 11:33N 51°47' E 003°20'0 0.0
2017-Mar-23 09:21N 51°47' E 003°20'0 0.1
2017-Mar-23 08:15N 51°47' E 003°20'0 0.0
2017-Mar-23 07:33N 51°47' E 003°20'0 0.0
2017-Mar-23 06:32N 51°47' E 003°20'0 0.0
2017-Mar-23 05:33N 51°47' E 003°20'0 0.0
2017-Mar-23 04:21N 51°47' E 003°20'0 0.0
2017-Mar-23 02:27N 51°47' E 003°20'0 0.0
2017-Mar-22 22:06N 51°47' E 003°20'0 0.0
2017-Mar-22 21:33N 51°47' E 003°20'0 0.0
2017-Mar-22 20:15N 51°47' E 003°20'0 0.0
2017-Mar-22 08:18N 51°47' E 003°20'0 0.0
2017-Mar-22 07:30N 51°47' E 003°20'0 0.0
2017-Mar-22 04:24N 51°47' E 003°20'0 0.0
2017-Mar-22 03:33N 51°47' E 003°20'0 0.0
2017-Mar-22 02:24N 51°47' E 003°20'0 0.0
2017-Mar-22 01:33N 51°47' E 003°20'0 0.0
2017-Mar-22 00:33N 51°47' E 003°20'0 0.0
2017-Mar-21 23:30N 51°47' E 003°20'0 0.0
2017-Mar-21 22:24N 51°47' E 003°20'0 0.0
2017-Mar-21 21:15N 51°47' E 003°20'0 0.0
2017-Mar-21 17:18N 51°47' E 003°20'0 0.0
2017-Mar-21 16:27N 51°47' E 003°20'0 0.0
2017-Mar-21 13:30N 51°47' E 003°20'0 0.0
2017-Mar-21 09:06N 51°47' E 003°20'0 0.0
2017-Mar-21 08:30N 51°47' E 003°20'0 0.0
2017-Mar-21 04:33N 51°47' E 003°20'0 0.0
2017-Mar-21 03:33N 51°47' E 003°20'0 0.1
2017-Mar-21 02:27N 51°46' E 003°20'0 0.0
2017-Mar-21 01:33N 51°46' E 003°20'0 0.0
2017-Mar-21 00:33N 51°47' E 003°20'5 5.4
2017-Mar-20 23:33N 51°52' E 003°18'45 8.9
2017-Mar-20 18:32N 52°36' E 003°30'7 7.5
2017-Mar-20 17:33N 52°42' E 003°36'364 9.8
2017-Mar-19 04:33N 58°01' E 008°45'1211.8
2017-Mar-19 03:33N 58°10' E 009°00'2311.7
2017-Mar-19 01:33N 58°28' E 009°28'1111.5
2017-Mar-19 00:33N 58°38' E 009°39'1312.8
2017-Mar-18 23:33N 58°50' E 009°44'1110.7
2017-Mar-18 22:33N 59°01' E 009°45'7 7.0
2017-Mar-18 21:33N 59°06' E 009°36'0 0.0
2017-Mar-18 20:33N 59°06' E 009°36'0 0.0
2017-Mar-18 19:33N 59°06' E 009°36'0 0.0
2017-Mar-18 18:33N 59°06' E 009°36'0 0.0
2017-Mar-18 17:33N 59°06' E 009°36'0 0.0
2017-Mar-18 16:33N 59°06' E 009°36'0 0.0
2017-Mar-18 15:33N 59°06' E 009°36'0 0.0
2017-Mar-18 14:33N 59°06' E 009°36'0 0.0
2017-Mar-18 13:33N 59°06' E 009°36'0 0.0
2017-Mar-18 12:33N 59°06' E 009°36'0 0.0
2017-Mar-18 11:33N 59°06' E 009°36'0 0.0
2017-Mar-18 10:33N 59°06' E 009°36'0 0.0
2017-Mar-18 09:33N 59°06' E 009°36'0 0.0
2017-Mar-18 08:33N 59°06' E 009°36'0 0.0
2017-Mar-18 07:14N 59°06' E 009°36'0 0.0
2017-Mar-18 06:32N 59°06' E 009°36'0 0.0
2017-Mar-18 05:32N 59°06' E 009°36'0 0.0
2017-Mar-18 04:31N 59°06' E 009°36'0 0.0
2017-Mar-18 03:32N 59°06' E 009°36'0 0.0
2017-Mar-18 02:32N 59°06' E 009°36'0 0.0
2017-Mar-18 01:32N 59°06' E 009°36'0 0.0
2017-Mar-18 00:32N 59°06' E 009°36'0 0.0
2017-Mar-17 23:32N 59°06' E 009°36'0 0.0
2017-Mar-17 22:32N 59°06' E 009°36'0 0.0
2017-Mar-17 21:31N 59°06' E 009°36'0 0.0
2017-Mar-17 20:31N 59°06' E 009°36'0 0.0
2017-Mar-17 19:32N 59°06' E 009°36'0 0.0
2017-Mar-17 18:32N 59°06' E 009°36'0 0.0
2017-Mar-17 17:31N 59°06' E 009°36'1 1.3
2017-Mar-17 16:33N 59°06' E 009°38'0 0.0
2017-Mar-17 15:33N 59°06' E 009°38'0 0.0
2017-Mar-17 14:33N 59°06' E 009°38'0 0.1
2017-Mar-17 13:33N 59°06' E 009°38'  
Track history (hours):
 
Tides and Currents Weather Stations Pressure Air Temp Water Temp Dewpoint Dewpoint Depression Visibility Wind Speed Wind Dir Waves Ship Positions

Clipper Saga

Last reported at 2017-Mar-27 13:31 UTC. Time now 2017-Mar-27 14:21 UTC.
Position N 53°11' E 005°26'.

Length 89 m; draft 5.9 m.

Type: Ship (hazmat cat C). MMSI: 246657008.

Date/timePositionNaut miles runAvg speedWind from/ knotsBaromVisibWave heightAir tempDewpointWater temp
2017-Mar-27 13:31N 53°11' E 005°26'0 0.0
2017-Mar-27 12:28N 53°11' E 005°26'0 0.0
2017-Mar-27 11:33N 53°11' E 005°26'0 0.0
2017-Mar-27 10:33N 53°11' E 005°26'0 0.0
2017-Mar-27 09:05N 53°11' E 005°26'0 0.0
2017-Mar-27 08:27N 53°11' E 005°26'0 0.0
2017-Mar-27 07:31N 53°11' E 005°26'0 0.0
2017-Mar-27 06:09N 53°11' E 005°26'0 0.0
2017-Mar-27 05:33N 53°11' E 005°26'0 0.0
2017-Mar-27 04:32N 53°11' E 005°26'0 0.0
2017-Mar-27 03:33N 53°11' E 005°26'0 0.0
2017-Mar-27 02:32N 53°11' E 005°26'0 0.0
2017-Mar-27 01:33N 53°11' E 005°26'0 0.0
2017-Mar-27 00:33N 53°11' E 005°26'0 0.0
2017-Mar-26 23:32N 53°11' E 005°26'1 1.4
2017-Mar-26 22:33N 53°11' E 005°24'8 7.9
2017-Mar-26 21:33N 53°14' E 005°12'7 7.1
2017-Mar-26 20:33N 53°19' E 005°03'9 9.4
2017-Mar-26 19:33N 53°17' E 004°47'1110.7
2017-Mar-26 18:33N 53°11' E 004°33'1211.6
2017-Mar-26 17:33N 53°01' E 004°23'1111.5
2017-Mar-26 16:33N 52°51' E 004°14'1111.0
2017-Mar-26 15:33N 52°42' E 004°03'1111.1
2017-Mar-26 14:33N 52°34' E 003°50'1110.5
2017-Mar-26 13:30N 52°30' E 003°33'2211.1
2017-Mar-26 11:33N 52°30' E 002°58'18 8.6
2017-Mar-26 09:30N 52°30' E 002°29'8 7.2
2017-Mar-26 08:25N 52°29' E 002°16'19 9.4
2017-Mar-26 06:22N 52°10' E 002°16'46 9.2
2017-Mar-26 01:22N 51°42' E 003°16'911.2
2017-Mar-26 00:33N 51°35' E 003°24'1211.2
2017-Mar-25 23:32N 51°26' E 003°36'8 8.2
2017-Mar-25 22:33N 51°21' E 003°47'5 5.1
2017-Mar-25 21:33N 51°17' E 003°50'8 8.4
2017-Mar-25 20:33N 51°09' E 003°47'0 0.1
2017-Mar-25 19:30N 51°09' E 003°47'0 0.0
2017-Mar-25 18:10N 51°09' E 003°47'0 0.0
2017-Mar-25 17:29N 51°09' E 003°47'0 0.0
2017-Mar-25 16:31N 51°09' E 003°47'0 0.0
2017-Mar-25 15:31N 51°09' E 003°47'0 0.0
2017-Mar-25 14:28N 51°09' E 003°47'0 0.0
2017-Mar-25 13:31N 51°09' E 003°47'0 0.0
2017-Mar-25 12:28N 51°09' E 003°47'0 0.0
2017-Mar-25 11:25N 51°09' E 003°47'0 0.0
2017-Mar-25 10:28N 51°09' E 003°47'0 0.0
2017-Mar-25 09:31N 51°09' E 003°47'0 0.0
2017-Mar-25 08:31N 51°09' E 003°47'0 0.0
2017-Mar-25 07:28N 51°09' E 003°47'0 0.0
2017-Mar-25 06:28N 51°09' E 003°47'0 0.0
2017-Mar-25 05:28N 51°09' E 003°47'0 0.0
2017-Mar-25 04:31N 51°09' E 003°47'0 0.0
2017-Mar-25 03:31N 51°09' E 003°47'3 3.3
2017-Mar-25 02:33N 51°12' E 003°48'8 7.7
2017-Mar-25 01:33N 51°20' E 003°49'4 4.4
2017-Mar-25 00:33N 51°22' E 003°44'8 7.8
2017-Mar-24 23:33N 51°27' E 003°33'1110.6
2017-Mar-24 22:33N 51°35' E 003°23'1010.1
2017-Mar-24 21:34N 51°44' E 003°16'4 2.5
2017-Mar-24 20:09N 51°46' E 003°20'0 0.0
2017-Mar-24 19:24N 51°46' E 003°20'0 0.0
2017-Mar-24 18:09N 51°46' E 003°20'0 0.0
2017-Mar-24 16:33N 51°46' E 003°20'0 0.0
2017-Mar-24 15:33N 51°46' E 003°20'0 0.0
2017-Mar-24 14:27N 51°46' E 003°20'0 0.0
2017-Mar-24 13:33N 51°46' E 003°20'0 0.0
2017-Mar-24 10:18N 51°46' E 003°20'0 0.0
2017-Mar-24 09:33N 51°46' E 003°20'0 0.0
2017-Mar-24 08:30N 51°46' E 003°20'0 0.0
2017-Mar-24 07:30N 51°46' E 003°20'0 0.0
2017-Mar-24 06:09N 51°46' E 003°20'0 0.0
2017-Mar-24 05:27N 51°46' E 003°20'0 0.0
2017-Mar-24 04:24N 51°46' E 003°20'0 0.0
2017-Mar-24 03:30N 51°46' E 003°20'0 0.0
2017-Mar-24 00:30N 51°47' E 003°20'0 0.0
2017-Mar-23 22:33N 51°46' E 003°20'0 0.0
2017-Mar-23 21:33N 51°46' E 003°20'0 0.0
2017-Mar-23 20:33N 51°46' E 003°20'0 0.0
2017-Mar-23 19:30N 51°46' E 003°20'0 0.0
2017-Mar-23 18:30N 51°46' E 003°20'0 0.0
2017-Mar-23 17:21N 51°46' E 003°20'0 0.0
2017-Mar-23 16:30N 51°46' E 003°20'0 0.1
2017-Mar-23 15:33N 51°47' E 003°20'0 0.0
2017-Mar-23 14:33N 51°47' E 003°20'0 0.0
2017-Mar-23 13:15N 51°47' E 003°20'0 0.1
2017-Mar-23 12:30N 51°47' E 003°20'0 0.0
2017-Mar-23 11:33N 51°47' E 003°20'0 0.0
2017-Mar-23 09:21N 51°47' E 003°20'0 0.1
2017-Mar-23 08:15N 51°47' E 003°20'0 0.0
2017-Mar-23 07:33N 51°47' E 003°20'0 0.0
2017-Mar-23 06:32N 51°47' E 003°20'0 0.0
2017-Mar-23 05:33N 51°47' E 003°20'0 0.0
2017-Mar-23 04:21N 51°47' E 003°20'0 0.0
2017-Mar-23 02:27N 51°47' E 003°20'0 0.0
2017-Mar-22 22:06N 51°47' E 003°20'0 0.0
2017-Mar-22 21:33N 51°47' E 003°20'0 0.0
2017-Mar-22 20:15N 51°47' E 003°20'0 0.0
2017-Mar-22 08:18N 51°47' E 003°20'0 0.0
2017-Mar-22 07:30N 51°47' E 003°20'0 0.0
2017-Mar-22 04:24N 51°47' E 003°20'0 0.0
2017-Mar-22 03:33N 51°47' E 003°20'0 0.0
2017-Mar-22 02:24N 51°47' E 003°20'0 0.0
2017-Mar-22 01:33N 51°47' E 003°20'0 0.0
2017-Mar-22 00:33N 51°47' E 003°20'0 0.0
2017-Mar-21 23:30N 51°47' E 003°20'0 0.0
2017-Mar-21 22:24N 51°47' E 003°20'0 0.0
2017-Mar-21 21:15N 51°47' E 003°20'0 0.0
2017-Mar-21 17:18N 51°47' E 003°20'0 0.0
2017-Mar-21 16:27N 51°47' E 003°20'0 0.0
2017-Mar-21 13:30N 51°47' E 003°20'0 0.0
2017-Mar-21 09:06N 51°47' E 003°20'0 0.0
2017-Mar-21 08:30N 51°47' E 003°20'0 0.0
2017-Mar-21 04:33N 51°47' E 003°20'0 0.0
2017-Mar-21 03:33N 51°47' E 003°20'0 0.1
2017-Mar-21 02:27N 51°46' E 003°20'0 0.0
2017-Mar-21 01:33N 51°46' E 003°20'0 0.0
2017-Mar-21 00:33N 51°47' E 003°20'5 5.4
2017-Mar-20 23:33N 51°52' E 003°18'45 8.9
2017-Mar-20 18:32N 52°36' E 003°30'7 7.5
2017-Mar-20 17:33N 52°42' E 003°36'364 9.8
2017-Mar-19 04:33N 58°01' E 008°45'1211.8
2017-Mar-19 03:33N 58°10' E 009°00'2311.7
2017-Mar-19 01:33N 58°28' E 009°28'1111.5
2017-Mar-19 00:33N 58°38' E 009°39'1312.8
2017-Mar-18 23:33N 58°50' E 009°44'1110.7
2017-Mar-18 22:33N 59°01' E 009°45'7 7.0
2017-Mar-18 21:33N 59°06' E 009°36'0 0.0
2017-Mar-18 20:33N 59°06' E 009°36'0 0.0
2017-Mar-18 19:33N 59°06' E 009°36'0 0.0
2017-Mar-18 18:33N 59°06' E 009°36'0 0.0
2017-Mar-18 17:33N 59°06' E 009°36'0 0.0
2017-Mar-18 16:33N 59°06' E 009°36'0 0.0
2017-Mar-18 15:33N 59°06' E 009°36'0 0.0
2017-Mar-18 14:33N 59°06' E 009°36'0 0.0
2017-Mar-18 13:33N 59°06' E 009°36'0 0.0
2017-Mar-18 12:33N 59°06' E 009°36'0 0.0
2017-Mar-18 11:33N 59°06' E 009°36'0 0.0
2017-Mar-18 10:33N 59°06' E 009°36'0 0.0
2017-Mar-18 09:33N 59°06' E 009°36'0 0.0
2017-Mar-18 08:33N 59°06' E 009°36'0 0.0
2017-Mar-18 07:14N 59°06' E 009°36'0 0.0
2017-Mar-18 06:32N 59°06' E 009°36'0 0.0
2017-Mar-18 05:32N 59°06' E 009°36'0 0.0
2017-Mar-18 04:31N 59°06' E 009°36'0 0.0
2017-Mar-18 03:32N 59°06' E 009°36'0 0.0
2017-Mar-18 02:32N 59°06' E 009°36'0 0.0
2017-Mar-18 01:32N 59°06' E 009°36'0 0.0
2017-Mar-18 00:32N 59°06' E 009°36'0 0.0
2017-Mar-17 23:32N 59°06' E 009°36'0 0.0
2017-Mar-17 22:32N 59°06' E 009°36'0 0.0
2017-Mar-17 21:31N 59°06' E 009°36'0 0.0
2017-Mar-17 20:31N 59°06' E 009°36'0 0.0
2017-Mar-17 19:32N 59°06' E 009°36'0 0.0
2017-Mar-17 18:32N 59°06' E 009°36'0 0.0
2017-Mar-17 17:31N 59°06' E 009°36'1 1.3
2017-Mar-17 16:33N 59°06' E 009°38'0 0.0
2017-Mar-17 15:33N 59°06' E 009°38'0 0.0
2017-Mar-17 14:33N 59°06' E 009°38'0 0.1
2017-Mar-17 13:33N 59°06' E 009°38'  

Dump ship's entire track history